createdAt,value
2019-05-25T00:01:01.935Z,74.66
2019-05-25T00:02:01.940Z,74.85
2019-05-25T00:03:54.853Z,75.34
2019-05-25T00:04:54.864Z,74.76
2019-05-25T00:06:47.777Z,74.95
2019-05-25T00:07:47.784Z,75.62
2019-05-25T00:09:41.196Z,75.62
2019-05-25T00:10:41.209Z,75.52
2019-05-25T00:12:34.130Z,76.00
2019-05-25T00:13:34.127Z,76.06
2019-05-25T00:15:27.539Z,76.25
2019-05-25T00:16:27.545Z,76.45
2019-05-25T00:18:20.459Z,76.06
2019-05-25T00:19:20.470Z,76.16
2019-05-25T00:21:14.313Z,76.29
2019-05-25T00:22:13.393Z,76.29
2019-05-25T00:24:12.094Z,76.77
2019-05-25T00:25:06.809Z,76.92
2019-05-25T00:27:00.239Z,77.01
2019-05-25T00:28:00.224Z,77.01
2019-05-25T00:29:53.139Z,76.82
2019-05-25T00:30:53.147Z,77.06
2019-05-25T00:32:46.063Z,77.06
2019-05-25T00:33:46.069Z,76.64
2019-05-25T00:35:38.983Z,76.77
2019-05-25T00:36:38.990Z,76.92
2019-05-25T00:38:31.900Z,77.40
2019-05-25T00:39:31.909Z,77.21
2019-05-25T00:41:25.327Z,77.21
2019-05-25T00:42:25.327Z,77.69
2019-05-25T00:44:18.238Z,78.26
2019-05-25T00:45:18.255Z,78.16
2019-05-25T00:47:11.161Z,78.45
2019-05-25T00:48:11.169Z,78.64
2019-05-25T00:50:04.079Z,79.08
2019-05-25T00:51:04.092Z,79.27
2019-05-25T00:52:57.011Z,79.65
2019-05-25T00:53:57.011Z,78.79
2019-05-25T00:55:49.924Z,79.41
2019-05-25T00:56:49.931Z,79.60
2019-05-25T00:58:42.844Z,79.88
2019-05-25T00:59:42.851Z,79.65
2019-05-25T01:01:35.765Z,79.75
2019-05-25T01:02:35.770Z,80.04
2019-05-25T01:04:28.677Z,79.85
2019-05-25T01:05:28.689Z,80.41
2019-05-25T01:07:21.602Z,80.80
2019-05-25T01:08:21.606Z,80.99
2019-05-25T01:10:14.516Z,80.80
2019-05-25T01:11:14.525Z,80.99
2019-05-25T01:13:07.442Z,81.18
2019-05-25T01:14:07.444Z,81.76
2019-05-25T01:16:00.862Z,81.66
2019-05-25T01:17:00.857Z,81.52
2019-05-25T01:18:53.771Z,82.76
2019-05-25T01:19:53.778Z,82.67
2019-05-25T01:21:46.699Z,82.29
2019-05-25T01:22:46.703Z,82.57
2019-05-25T01:24:44.537Z,83.14
2019-05-25T01:25:39.624Z,83.53
2019-05-25T01:27:32.537Z,83.62
2019-05-25T01:28:32.542Z,83.91
2019-05-25T01:30:25.944Z,83.53
2019-05-25T01:31:25.956Z,83.72
2019-05-25T01:33:18.868Z,83.72
2019-05-25T01:34:18.874Z,84.10
2019-05-25T01:36:11.789Z,83.72
2019-05-25T01:37:11.792Z,84.10
2019-05-25T01:39:04.701Z,83.72
2019-05-25T01:40:04.711Z,84.10
2019-05-25T01:41:57.624Z,84.20
2019-05-25T01:42:57.627Z,83.72
2019-05-25T01:44:50.540Z,84.10
2019-05-25T01:45:50.548Z,83.81
2019-05-25T01:47:43.467Z,83.62
2019-05-25T01:48:43.466Z,83.72
2019-05-25T01:50:36.375Z,83.53
2019-05-25T01:51:36.383Z,83.14
2019-05-25T01:53:29.790Z,83.34
2019-05-25T01:54:29.797Z,83.53
2019-05-25T01:56:23.201Z,83.34
2019-05-25T01:57:23.207Z,83.72
2019-05-25T01:59:16.115Z,84.10
2019-05-25T02:00:16.127Z,83.91
2019-05-25T02:02:09.039Z,84.10
2019-05-25T02:03:09.090Z,84.39
2019-05-25T02:05:02.453Z,84.86
2019-05-25T02:06:02.459Z,84.67
2019-05-25T02:07:55.371Z,85.11
2019-05-25T02:08:55.377Z,84.58
2019-05-25T02:10:48.301Z,85.25
2019-05-25T02:11:48.293Z,84.96
2019-05-25T02:13:41.207Z,84.29
2019-05-25T02:14:41.215Z,84.39
2019-05-25T02:16:34.619Z,84.39
2019-05-25T02:17:34.625Z,84.48
2019-05-25T02:19:27.541Z,84.96
2019-05-25T02:20:27.591Z,85.11
2019-05-25T02:22:20.459Z,85.49
2019-05-25T02:23:20.479Z,85.49
2019-05-25T02:25:18.284Z,86.54
2019-05-25T02:26:13.877Z,86.73
2019-05-25T02:28:06.792Z,87.59
2019-05-25T02:29:06.800Z,87.40
2019-05-25T02:30:59.705Z,87.40
2019-05-25T02:31:59.716Z,87.40
2019-05-25T02:33:53.120Z,87.59
2019-05-25T02:34:53.129Z,87.87
2019-05-25T02:36:46.067Z,86.63
2019-05-25T02:37:46.045Z,86.82
2019-05-25T02:39:38.954Z,86.63
2019-05-25T02:40:38.965Z,86.16
2019-05-25T02:42:31.886Z,86.39
2019-05-25T02:43:31.897Z,86.30
2019-05-25T02:45:24.800Z,85.44
2019-05-25T02:46:24.810Z,85.63
2019-05-25T02:48:17.726Z,85.53
2019-05-25T02:49:17.730Z,85.82
2019-05-25T02:51:10.645Z,85.72
2019-05-25T02:52:10.646Z,85.34
2019-05-25T02:54:03.555Z,85.25
2019-05-25T02:55:03.563Z,84.96
2019-05-25T02:56:56.474Z,85.44
2019-05-25T02:57:56.489Z,84.67
2019-05-25T02:59:49.388Z,84.86
2019-05-25T03:00:49.397Z,84.58
2019-05-25T03:02:42.323Z,83.91
2019-05-25T03:03:42.315Z,83.95
2019-05-25T03:05:35.223Z,83.76
2019-05-25T03:06:35.233Z,83.76
2019-05-25T03:08:28.636Z,83.47
2019-05-25T03:09:28.647Z,83.18
2019-05-25T03:11:21.559Z,82.90
2019-05-25T03:12:21.563Z,83.18
2019-05-25T03:14:14.474Z,83.00
2019-05-25T03:15:14.483Z,83.00
2019-05-25T03:17:07.396Z,82.71
2019-05-25T03:18:07.400Z,82.23
2019-05-25T03:20:00.308Z,81.99
2019-05-25T03:21:00.318Z,81.85
2019-05-25T03:22:53.231Z,81.99
2019-05-25T03:23:53.237Z,81.79
2019-05-25T03:25:49.534Z,82.04
2019-05-25T03:26:46.159Z,81.47
2019-05-25T03:28:39.575Z,81.09
2019-05-25T03:29:39.585Z,81.99
2019-05-25T03:31:32.988Z,81.37
2019-05-25T03:32:32.998Z,81.95
2019-05-25T03:34:25.902Z,81.47
2019-05-25T03:35:25.924Z,82.23
2019-05-25T03:37:18.843Z,82.81
2019-05-25T03:38:18.840Z,82.61
2019-05-25T03:40:11.748Z,82.81
2019-05-25T03:41:11.756Z,82.61
2019-05-25T03:43:04.668Z,82.61
2019-05-25T03:44:04.673Z,82.42
2019-05-25T03:45:57.580Z,82.23
2019-05-25T03:46:57.590Z,82.52
2019-05-25T03:48:50.504Z,82.81
2019-05-25T03:49:50.511Z,82.42
2019-05-25T03:51:43.425Z,82.52
2019-05-25T03:52:43.432Z,82.42
2019-05-25T03:54:36.335Z,83.38
2019-05-25T03:55:36.347Z,83.18
2019-05-25T03:57:29.266Z,83.57
2019-05-25T03:58:29.266Z,83.95
2019-05-25T04:00:22.177Z,83.47
2019-05-25T04:01:22.187Z,83.67
2019-05-25T04:03:15.099Z,84.14
2019-05-25T04:04:15.105Z,84.05
2019-05-25T04:06:08.008Z,83.67
2019-05-25T04:07:08.021Z,83.47
2019-05-25T04:09:00.940Z,83.86
2019-05-25T04:10:01.078Z,84.23
2019-05-25T04:11:53.856Z,83.57
2019-05-25T04:12:53.863Z,84.43
2019-05-25T04:14:46.774Z,84.14
2019-05-25T04:15:46.782Z,83.86
2019-05-25T04:17:39.699Z,84.43
2019-05-25T04:18:39.699Z,84.43
2019-05-25T04:20:32.610Z,84.91
2019-05-25T04:21:32.618Z,84.91
2019-05-25T04:23:25.537Z,84.33
2019-05-25T04:24:25.540Z,84.72
2019-05-25T04:26:22.365Z,84.52
2019-05-25T04:27:18.457Z,85.00
2019-05-25T04:29:11.372Z,84.76
2019-05-25T04:30:11.378Z,84.56
2019-05-25T04:32:04.296Z,84.09
2019-05-25T04:33:04.300Z,84.38
2019-05-25T04:34:57.209Z,83.99
2019-05-25T04:35:57.221Z,83.65
2019-05-25T04:37:50.140Z,83.46
2019-05-25T04:38:50.421Z,83.37
2019-05-25T04:40:43.053Z,83.08
2019-05-25T04:41:43.063Z,82.70
2019-05-25T04:43:35.981Z,82.70
2019-05-25T04:44:35.984Z,81.93
2019-05-25T04:46:28.894Z,81.55
2019-05-25T04:47:28.906Z,81.65
2019-05-25T04:49:21.824Z,81.65
2019-05-25T04:50:21.830Z,81.84
2019-05-25T04:52:14.744Z,81.36
2019-05-25T04:53:14.751Z,81.40
2019-05-25T04:55:07.660Z,80.63
2019-05-25T04:56:07.727Z,80.63
2019-05-25T04:58:00.596Z,80.73
2019-05-25T04:59:00.600Z,80.92
2019-05-25T05:00:53.511Z,79.87
2019-05-25T05:01:53.524Z,79.68
2019-05-25T05:03:46.437Z,78.81
2019-05-25T05:04:46.448Z,78.97
2019-05-25T05:06:39.362Z,79.77
2019-05-25T05:07:39.368Z,80.35
2019-05-25T05:09:32.289Z,79.77
2019-05-25T05:10:32.301Z,79.96
2019-05-25T05:12:25.210Z,79.77
2019-05-25T05:13:25.215Z,79.00
2019-05-25T05:15:18.127Z,79.39
2019-05-25T05:16:18.180Z,79.39
2019-05-25T05:18:11.069Z,78.91
2019-05-25T05:19:11.059Z,78.14
2019-05-25T05:21:03.982Z,78.81
2019-05-25T05:22:06.029Z,79.10
2019-05-25T05:23:56.901Z,78.72
2019-05-25T05:24:56.907Z,78.24
2019-05-25T05:26:56.005Z,77.82
2019-05-25T05:27:49.830Z,78.14
2019-05-25T05:29:42.748Z,78.11
2019-05-25T05:30:42.753Z,78.11
2019-05-25T05:32:35.666Z,77.95
2019-05-25T05:33:35.671Z,78.11
2019-05-25T05:35:28.582Z,78.24
2019-05-25T05:36:28.594Z,77.95
2019-05-25T05:38:21.513Z,77.95
2019-05-25T05:39:21.518Z,77.25
2019-05-25T05:41:14.963Z,77.00
2019-05-25T05:42:14.933Z,77.09
2019-05-25T05:44:07.850Z,77.48
2019-05-25T05:45:07.856Z,77.48
2019-05-25T05:47:00.771Z,77.57
2019-05-25T05:48:00.784Z,77.57
2019-05-25T05:49:53.713Z,77.28
2019-05-25T05:50:53.705Z,76.52
2019-05-25T05:52:46.618Z,76.90
2019-05-25T05:53:46.623Z,75.76
2019-05-25T05:55:39.531Z,76.23
2019-05-25T05:56:39.546Z,76.04
2019-05-25T05:58:32.956Z,75.47
2019-05-25T05:59:32.961Z,74.61
2019-05-25T06:01:25.876Z,74.99
2019-05-25T06:02:25.885Z,74.99
2019-05-25T06:04:18.799Z,74.65
2019-05-25T06:05:18.804Z,74.51
2019-05-25T06:07:11.718Z,75.18
2019-05-25T06:08:11.730Z,74.99
2019-05-25T06:10:04.648Z,74.26
2019-05-25T06:11:04.654Z,74.16
2019-05-25T06:12:57.573Z,73.88
2019-05-25T06:13:57.579Z,73.97
2019-05-25T06:15:50.486Z,74.26
2019-05-25T06:16:50.500Z,74.16
2019-05-25T06:18:43.911Z,74.07
2019-05-25T06:19:43.918Z,73.97
2019-05-25T06:21:36.833Z,74.16
2019-05-25T06:22:36.846Z,73.50
2019-05-25T06:24:29.763Z,73.63
2019-05-25T06:25:29.777Z,73.72
2019-05-25T06:27:27.610Z,73.63
2019-05-25T06:28:23.193Z,73.63
2019-05-25T06:30:16.112Z,73.15
2019-05-25T06:31:16.122Z,72.58
2019-05-25T06:33:09.032Z,70.28
2019-05-25T06:34:09.044Z,70.76
2019-05-25T06:36:01.955Z,72.19
2019-05-25T06:37:01.974Z,72.77
2019-05-25T06:38:54.882Z,71.23
2019-05-25T06:39:54.889Z,71.04
2019-05-25T06:41:47.802Z,71.14
2019-05-25T06:42:47.817Z,71.52
2019-05-25T06:44:40.734Z,70.95
2019-05-25T06:45:40.739Z,70.66
2019-05-25T06:47:33.653Z,71.14
2019-05-25T06:48:33.666Z,70.85
2019-05-25T06:50:26.580Z,70.66
2019-05-25T06:51:26.590Z,70.47
2019-05-25T06:53:19.507Z,70.76
2019-05-25T06:54:19.515Z,69.32
2019-05-25T06:56:12.426Z,68.52
2019-05-25T06:57:12.503Z,69.60
2019-05-25T06:59:05.360Z,70.15
2019-05-25T07:00:05.367Z,70.62
2019-05-25T07:01:58.281Z,70.18
2019-05-25T07:02:58.294Z,69.80
2019-05-25T07:04:51.521Z,69.32
2019-05-25T07:05:51.221Z,68.74
2019-05-25T07:07:44.204Z,68.46
2019-05-25T07:08:44.149Z,68.65
2019-05-25T07:10:37.065Z,68.55
2019-05-25T07:11:37.073Z,66.45
2019-05-25T07:13:29.993Z,65.49
2019-05-25T07:14:30.006Z,65.78
2019-05-25T07:16:22.914Z,63.22
2019-05-25T07:17:22.927Z,63.32
2019-05-25T07:19:15.850Z,61.50
2019-05-25T07:20:15.860Z,61.43
2019-05-25T07:22:08.774Z,60.31
2019-05-25T07:23:08.789Z,59.93
2019-05-25T07:25:01.711Z,60.03
2019-05-25T07:26:01.718Z,58.78
2019-05-25T07:27:59.474Z,57.70
2019-05-25T07:28:54.649Z,57.79
2019-05-25T07:30:47.573Z,59.33
2019-05-25T07:31:47.579Z,59.23
2019-05-25T07:33:40.499Z,59.71
2019-05-25T07:34:40.511Z,59.42
2019-05-25T07:36:33.424Z,59.23
2019-05-25T07:37:33.441Z,59.83
2019-05-25T07:39:26.371Z,59.83
2019-05-25T07:40:26.371Z,59.09
2019-05-25T07:42:20.090Z,58.23
2019-05-25T07:43:19.303Z,58.01
2019-05-25T07:45:12.718Z,57.82
2019-05-25T07:46:12.730Z,57.82
2019-05-25T07:48:05.667Z,59.36
2019-05-25T07:49:05.692Z,58.97
2019-05-25T07:50:58.603Z,57.72
2019-05-25T07:51:58.611Z,57.92
2019-05-25T07:53:51.531Z,57.82
2019-05-25T07:54:51.542Z,58.01
2019-05-25T07:56:44.459Z,57.72
2019-05-25T07:57:44.473Z,57.70
2019-05-25T07:59:37.433Z,59.04
2019-05-25T08:00:37.402Z,59.42
2019-05-25T08:02:30.334Z,59.04
2019-05-25T08:03:30.352Z,59.42
2019-05-25T08:05:23.328Z,58.08
2019-05-25T08:06:23.291Z,57.89
2019-05-25T08:08:16.225Z,58.08
2019-05-25T08:09:16.346Z,57.70
2019-05-25T08:11:09.218Z,58.08
2019-05-25T08:12:09.181Z,59.23
2019-05-25T08:14:02.179Z,59.16
2019-05-25T08:15:02.192Z,56.48
2019-05-25T08:16:55.105Z,56.00
2019-05-25T08:17:55.119Z,55.52
2019-05-25T08:19:48.115Z,56.29
2019-05-25T08:20:48.050Z,56.48
2019-05-25T08:22:41.029Z,56.12
2019-05-25T08:23:41.034Z,55.45
2019-05-25T08:25:34.524Z,56.02
2019-05-25T08:26:33.970Z,56.70
2019-05-25T08:28:32.925Z,55.93
2019-05-25T08:29:26.900Z,56.70
2019-05-25T08:31:19.824Z,56.51
2019-05-25T08:32:19.833Z,56.12
2019-05-25T08:34:12.758Z,57.18
2019-05-25T08:35:12.767Z,56.98
2019-05-25T08:37:05.682Z,57.37
2019-05-25T08:38:05.695Z,57.46
2019-05-25T08:39:58.634Z,55.74
2019-05-25T08:40:58.635Z,55.64
2019-05-25T08:42:51.557Z,55.55
2019-05-25T08:43:51.563Z,54.88
2019-05-25T08:45:44.998Z,55.29
2019-05-25T08:46:44.991Z,55.19
2019-05-25T08:48:37.937Z,53.66
2019-05-25T08:49:37.948Z,52.98
2019-05-25T08:51:30.870Z,52.79
2019-05-25T08:52:30.885Z,52.79
2019-05-25T08:54:23.810Z,52.22
2019-05-25T08:55:23.846Z,52.60
2019-05-25T08:57:18.717Z,52.95
2019-05-25T08:58:16.798Z,53.17
2019-05-25T09:00:09.728Z,52.60
2019-05-25T09:01:09.740Z,52.60
2019-05-25T09:03:02.686Z,52.31
2019-05-25T09:04:02.702Z,52.98
2019-05-25T09:05:55.625Z,52.31
2019-05-25T09:06:55.633Z,53.20
2019-05-25T09:08:48.564Z,51.47
2019-05-25T09:09:48.568Z,51.67
2019-05-25T09:11:41.495Z,51.98
2019-05-25T09:12:41.507Z,52.46
2019-05-25T09:14:34.434Z,51.02
2019-05-25T09:15:34.444Z,51.02
2019-05-25T09:17:27.366Z,52.68
2019-05-25T09:18:27.378Z,51.81
2019-05-25T09:20:20.307Z,50.76
2019-05-25T09:21:20.318Z,50.54
2019-05-25T09:23:13.236Z,50.44
2019-05-25T09:24:13.254Z,50.61
2019-05-25T09:26:06.212Z,50.80
2019-05-25T09:27:06.188Z,51.76
2019-05-25T09:29:04.621Z,52.84
2019-05-25T09:29:59.122Z,53.13
2019-05-25T09:31:52.091Z,51.59
2019-05-25T09:32:52.059Z,51.69
2019-05-25T09:34:44.984Z,50.32
2019-05-25T09:35:46.640Z,49.77
2019-05-25T09:37:37.918Z,51.79
2019-05-25T09:38:37.931Z,50.92
2019-05-25T09:40:30.881Z,52.24
2019-05-25T09:41:30.879Z,52.17
2019-05-25T09:43:23.793Z,51.11
2019-05-25T09:44:23.805Z,50.05
2019-05-25T09:46:16.731Z,50.54
2019-05-25T09:47:16.741Z,50.25
2019-05-25T09:49:09.673Z,50.82
2019-05-25T09:50:09.683Z,51.04
2019-05-25T09:52:02.602Z,49.22
2019-05-25T09:53:02.615Z,49.12
2019-05-25T09:54:55.818Z,50.46
2019-05-25T09:55:55.554Z,49.99
2019-05-25T09:57:48.476Z,51.14
2019-05-25T09:58:48.494Z,51.07
2019-05-25T10:00:41.419Z,49.60
2019-05-25T10:01:41.431Z,49.41
2019-05-25T10:03:34.355Z,50.95
2019-05-25T10:04:34.371Z,51.81
2019-05-25T10:06:27.300Z,50.49
2019-05-25T10:07:27.309Z,50.71
2019-05-25T10:09:20.250Z,48.59
2019-05-25T10:10:20.253Z,48.61
2019-05-25T10:12:16.188Z,49.38
2019-05-25T10:13:13.192Z,48.52
2019-05-25T10:15:06.124Z,46.57
2019-05-25T10:16:06.147Z,46.38
2019-05-25T10:17:59.098Z,48.30
2019-05-25T10:18:59.070Z,48.40
2019-05-25T10:20:51.998Z,51.86
2019-05-25T10:21:52.034Z,50.83
2019-05-25T10:23:44.934Z,48.13
2019-05-25T10:24:44.945Z,50.06
2019-05-25T10:26:37.870Z,46.81
2019-05-25T10:27:37.882Z,46.14
2019-05-25T10:29:37.280Z,46.81
2019-05-25T10:30:30.823Z,47.46
2019-05-25T10:32:23.747Z,46.59
2019-05-25T10:33:23.803Z,46.01
2019-05-25T10:35:16.689Z,46.69
2019-05-25T10:36:16.698Z,46.40
2019-05-25T10:38:09.631Z,46.47
2019-05-25T10:39:09.637Z,46.95
2019-05-25T10:41:02.657Z,46.88
2019-05-25T10:42:02.691Z,46.50
2019-05-25T10:43:55.544Z,47.44
2019-05-25T10:44:55.568Z,46.47
2019-05-25T10:46:48.480Z,47.53
2019-05-25T10:47:48.490Z,47.05
2019-05-25T10:49:41.419Z,51.29
2019-05-25T10:50:41.432Z,50.99
2019-05-25T10:52:34.354Z,47.63
2019-05-25T10:53:34.367Z,48.88
2019-05-25T10:55:27.291Z,48.49
2019-05-25T10:56:27.301Z,48.59
2019-05-25T10:58:20.222Z,48.97
2019-05-25T10:59:20.237Z,49.94
2019-05-25T11:01:13.177Z,52.08
2019-05-25T11:02:13.171Z,49.87
2019-05-25T11:04:07.104Z,48.03
2019-05-25T11:05:07.106Z,47.85
2019-05-25T11:07:00.033Z,48.61
2019-05-25T11:08:00.044Z,47.56
2019-05-25T11:09:53.461Z,47.65
2019-05-25T11:10:53.474Z,49.10
2019-05-25T11:12:46.396Z,47.27
2019-05-25T11:13:46.414Z,47.19
2019-05-25T11:15:39.435Z,46.62
2019-05-25T11:16:39.370Z,46.59
2019-05-25T11:18:32.292Z,47.36
2019-05-25T11:19:32.335Z,47.65
2019-05-25T11:21:25.244Z,46.78
2019-05-25T11:22:25.254Z,46.88
2019-05-25T11:24:18.198Z,46.98
2019-05-25T11:25:18.198Z,46.57
2019-05-25T11:27:11.123Z,47.53
2019-05-25T11:28:11.225Z,47.63
2019-05-25T11:30:08.930Z,49.19
2019-05-25T11:31:04.075Z,48.33
2019-05-25T11:32:56.997Z,46.98
2019-05-25T11:33:57.016Z,47.27
2019-05-25T11:35:49.935Z,47.00
2019-05-25T11:36:49.949Z,47.00
2019-05-25T11:38:42.921Z,47.17
2019-05-25T11:39:42.890Z,47.56
2019-05-25T11:41:35.931Z,48.93
2019-05-25T11:42:35.834Z,47.49
2019-05-25T11:44:28.753Z,48.64
2019-05-25T11:45:28.771Z,47.58
2019-05-25T11:47:21.736Z,47.19
2019-05-25T11:48:21.710Z,47.00
2019-05-25T11:50:14.633Z,46.93
2019-05-25T11:51:14.648Z,45.29
2019-05-25T11:53:07.569Z,46.81
2019-05-25T11:54:07.589Z,46.55
2019-05-25T11:56:00.515Z,47.29
2019-05-25T11:57:00.526Z,46.52
2019-05-25T11:58:53.951Z,46.91
2019-05-25T11:59:53.982Z,46.64
2019-05-25T12:01:46.951Z,46.73
2019-05-25T12:02:46.960Z,46.73
2019-05-25T12:04:39.915Z,46.71
2019-05-25T12:05:39.941Z,47.97
2019-05-25T12:07:32.881Z,48.47
2019-05-25T12:08:32.841Z,48.86
2019-05-25T12:10:25.958Z,46.64
2019-05-25T12:11:25.873Z,46.93
2019-05-25T12:13:18.814Z,47.12
2019-05-25T12:14:18.773Z,47.34
2019-05-25T12:16:11.781Z,44.93
2019-05-25T12:17:11.723Z,45.89
2019-05-25T12:19:04.685Z,45.12
2019-05-25T12:20:04.665Z,45.03
2019-05-25T12:21:57.687Z,45.58
2019-05-25T12:22:57.608Z,45.29
2019-05-25T12:24:50.540Z,44.90
2019-05-25T12:25:50.585Z,45.17
2019-05-25T12:27:43.494Z,46.14
2019-05-25T12:28:43.492Z,46.91
2019-05-25T12:30:40.918Z,45.36
2019-05-25T12:31:36.516Z,45.07
2019-05-25T12:33:29.429Z,46.71
2019-05-25T12:34:29.578Z,47.31
2019-05-25T12:36:22.533Z,45.58
2019-05-25T12:37:22.387Z,46.04
2019-05-25T12:39:15.321Z,45.56
2019-05-25T12:40:15.326Z,46.62
2019-05-25T12:42:08.270Z,47.99
2019-05-25T12:43:08.806Z,47.03
2019-05-25T12:45:01.257Z,46.06
2019-05-25T12:46:01.208Z,44.52
2019-05-25T12:47:54.496Z,44.54
2019-05-25T12:48:54.205Z,44.35
2019-05-25T12:50:47.142Z,44.64
2019-05-25T12:51:47.147Z,43.96
2019-05-25T12:53:40.067Z,44.64
2019-05-25T12:54:40.180Z,44.93
2019-05-25T12:56:33.016Z,44.93
2019-05-25T12:57:33.029Z,45.20
2019-05-25T12:59:25.964Z,45.00
2019-05-25T13:00:25.971Z,44.62
2019-05-25T13:02:18.902Z,44.52
2019-05-25T13:03:18.913Z,45.58
2019-05-25T13:05:11.859Z,44.81
2019-05-25T13:06:11.873Z,44.71
2019-05-25T13:08:04.802Z,45.39
2019-05-25T13:09:04.819Z,44.90
2019-05-25T13:10:57.748Z,46.64
2019-05-25T13:11:57.755Z,46.86
2019-05-25T13:13:50.677Z,45.21
2019-05-25T13:14:50.693Z,45.89
2019-05-25T13:16:43.618Z,44.35
2019-05-25T13:17:43.635Z,44.73
2019-05-25T13:19:36.563Z,44.45
2019-05-25T13:20:36.583Z,45.03
2019-05-25T13:22:29.527Z,45.72
2019-05-25T13:23:29.541Z,46.81
2019-05-25T13:25:22.468Z,44.29
2019-05-25T13:26:22.481Z,44.27
2019-05-25T13:28:15.415Z,44.56
2019-05-25T13:29:15.437Z,44.15
2019-05-25T13:31:11.718Z,44.35
2019-05-25T13:32:08.369Z,44.45
2019-05-25T13:34:01.296Z,45.72
2019-05-25T13:35:01.329Z,44.37
2019-05-25T13:36:54.244Z,44.27
2019-05-25T13:37:54.257Z,44.54
2019-05-25T13:39:47.178Z,44.66
2019-05-25T13:40:47.194Z,44.25
2019-05-25T13:42:40.152Z,45.12
2019-05-25T13:43:40.155Z,44.83
2019-05-25T13:45:33.064Z,45.51
2019-05-25T13:46:33.113Z,45.79
2019-05-25T13:48:25.996Z,45.51
2019-05-25T13:49:26.008Z,44.81
2019-05-25T13:51:18.935Z,45.29
2019-05-25T13:52:18.949Z,45.29
2019-05-25T13:54:11.873Z,45.68
2019-05-25T13:55:11.889Z,45.94
2019-05-25T13:57:04.814Z,47.00
2019-05-25T13:58:04.825Z,46.71
2019-05-25T13:59:57.745Z,47.00
2019-05-25T14:00:57.762Z,46.62
2019-05-25T14:02:50.688Z,46.71
2019-05-25T14:03:50.698Z,46.52
2019-05-25T14:05:43.626Z,46.93
2019-05-25T14:06:43.635Z,45.46
2019-05-25T14:08:36.570Z,47.67
2019-05-25T14:09:36.572Z,46.93
2019-05-25T14:11:29.503Z,46.52
2019-05-25T14:12:29.515Z,46.25
2019-05-25T14:14:24.542Z,46.25
2019-05-25T14:15:22.454Z,46.06
2019-05-25T14:17:15.382Z,45.27
2019-05-25T14:18:15.394Z,45.17
2019-05-25T14:20:08.331Z,46.35
2019-05-25T14:21:08.351Z,47.22
2019-05-25T14:23:02.131Z,45.58
2019-05-25T14:24:01.334Z,44.23
2019-05-25T14:25:54.208Z,44.59
2019-05-25T14:26:54.219Z,44.90
2019-05-25T14:28:47.151Z,46.93
2019-05-25T14:29:47.158Z,44.42
2019-05-25T14:31:45.678Z,44.45
2019-05-25T14:32:40.260Z,44.13
2019-05-25T14:34:33.013Z,44.23
2019-05-25T14:35:33.048Z,44.54
2019-05-25T14:37:25.956Z,44.83
2019-05-25T14:38:25.967Z,44.25
2019-05-25T14:40:18.918Z,45.21
2019-05-25T14:41:18.921Z,45.60
2019-05-25T14:43:11.876Z,44.37
2019-05-25T14:44:11.879Z,44.15
2019-05-25T14:46:04.844Z,44.37
2019-05-25T14:47:04.818Z,43.67
2019-05-25T14:48:57.797Z,44.85
2019-05-25T14:49:57.765Z,45.53
2019-05-25T14:51:50.773Z,44.08
2019-05-25T14:52:50.702Z,43.31
2019-05-25T14:54:43.624Z,42.71
2019-05-25T14:55:43.640Z,42.83
2019-05-25T14:57:36.567Z,43.48
2019-05-25T14:58:36.629Z,44.15
2019-05-25T15:00:29.499Z,44.46
2019-05-25T15:01:29.515Z,43.89
2019-05-25T15:03:22.450Z,43.67
2019-05-25T15:04:22.463Z,44.06
2019-05-25T15:06:15.575Z,44.90
2019-05-25T15:07:15.610Z,44.62
2019-05-25T15:09:08.514Z,45.68
2019-05-25T15:10:08.524Z,44.71
2019-05-25T15:12:01.475Z,44.71
2019-05-25T15:13:01.466Z,44.64
2019-05-25T15:14:54.377Z,44.64
2019-05-25T15:15:54.395Z,45.21
2019-05-25T15:17:47.322Z,44.56
2019-05-25T15:18:47.333Z,44.37
2019-05-25T15:20:40.305Z,42.63
2019-05-25T15:21:40.334Z,42.63
2019-05-25T15:23:33.194Z,42.54
2019-05-25T15:24:33.203Z,42.71
2019-05-25T15:26:26.132Z,44.56
2019-05-25T15:27:26.140Z,44.66
2019-05-25T15:29:19.059Z,44.56
2019-05-25T15:30:19.078Z,44.29
2019-05-25T15:32:20.066Z,42.46
2019-05-25T15:33:12.056Z,44.10
2019-05-25T15:35:04.972Z,42.75
2019-05-25T15:36:04.991Z,42.93
2019-05-25T15:37:57.912Z,42.27
2019-05-25T15:38:57.922Z,42.46
2019-05-25T15:40:50.842Z,42.08
2019-05-25T15:41:50.866Z,42.08
2019-05-25T15:43:43.788Z,41.78
2019-05-25T15:44:43.801Z,41.60
2019-05-25T15:46:36.726Z,41.38
2019-05-25T15:47:36.781Z,41.77
2019-05-25T15:49:33.162Z,42.56
2019-05-25T15:50:29.676Z,42.18
2019-05-25T15:52:22.602Z,42.85
2019-05-25T15:53:22.613Z,42.27
2019-05-25T15:55:15.540Z,40.55
2019-05-25T15:56:15.551Z,39.18
2019-05-25T15:58:08.479Z,39.49
2019-05-25T15:59:08.492Z,40.36
2019-05-25T16:01:01.418Z,39.66
2019-05-25T16:02:01.434Z,39.86
2019-05-25T16:03:54.364Z,41.11
2019-05-25T16:04:54.375Z,40.45
2019-05-25T16:06:47.302Z,40.26
2019-05-25T16:07:47.314Z,40.24
2019-05-25T16:09:40.243Z,40.26
2019-05-25T16:10:40.300Z,40.53
2019-05-25T16:12:33.187Z,40.15
2019-05-25T16:13:33.197Z,40.05
2019-05-25T16:15:26.620Z,41.40
2019-05-25T16:16:30.130Z,41.88
2019-05-25T16:18:20.051Z,41.69
2019-05-25T16:19:20.064Z,41.69
2019-05-25T16:21:12.989Z,41.40
2019-05-25T16:22:13.006Z,41.40
2019-05-25T16:24:08.069Z,41.57
2019-05-25T16:25:05.955Z,41.09
2019-05-25T16:26:58.874Z,41.57
2019-05-25T16:27:58.897Z,41.96
2019-05-25T16:29:52.302Z,41.48
2019-05-25T16:30:52.313Z,41.57
2019-05-25T16:33:10.791Z,41.96
2019-05-25T16:33:45.250Z,42.54
2019-05-25T16:35:38.170Z,41.65
2019-05-25T16:36:38.186Z,40.97
2019-05-25T16:38:31.113Z,41.34
2019-05-25T16:39:31.122Z,41.53
2019-05-25T16:41:24.040Z,41.84
2019-05-25T16:42:24.056Z,41.44
2019-05-25T16:44:17.476Z,42.11
2019-05-25T16:45:17.486Z,41.82
2019-05-25T16:47:10.419Z,42.02
2019-05-25T16:48:10.426Z,41.63
2019-05-25T16:50:03.349Z,41.92
2019-05-25T16:51:03.361Z,41.72
2019-05-25T16:52:56.294Z,41.53
2019-05-25T16:53:56.311Z,41.63
2019-05-25T16:55:49.225Z,42.11
2019-05-25T16:56:49.241Z,42.13
2019-05-25T16:58:42.166Z,41.75
2019-05-25T16:59:42.174Z,41.55
2019-05-25T17:01:47.628Z,42.13
2019-05-25T17:02:35.108Z,42.32
2019-05-25T17:04:28.035Z,41.46
2019-05-25T17:05:28.052Z,40.78
2019-05-25T17:07:20.973Z,41.07
2019-05-25T17:08:20.985Z,40.69
2019-05-25T17:10:13.904Z,41.65
2019-05-25T17:11:13.919Z,41.65
2019-05-25T17:13:07.342Z,41.07
2019-05-25T17:14:07.352Z,41.27
2019-05-25T17:16:00.275Z,40.97
2019-05-25T17:17:00.291Z,40.88
2019-05-25T17:18:54.719Z,42.21
2019-05-25T17:19:54.713Z,41.44
2019-05-25T17:21:47.635Z,42.02
2019-05-25T17:22:47.653Z,42.40
2019-05-25T17:24:40.573Z,42.30
2019-05-25T17:25:40.582Z,41.92
2019-05-25T17:27:34.507Z,42.49
2019-05-25T17:28:34.518Z,43.46
2019-05-25T17:30:27.436Z,42.76
2019-05-25T17:31:27.452Z,42.59
2019-05-25T17:33:20.379Z,42.49
2019-05-25T17:34:20.387Z,42.59
2019-05-25T17:36:13.504Z,42.59
2019-05-25T17:37:13.322Z,42.69
2019-05-25T17:39:06.738Z,43.07
2019-05-25T17:40:06.753Z,42.59
2019-05-25T17:41:59.680Z,41.53
2019-05-25T17:42:59.713Z,41.92
2019-05-25T17:44:52.620Z,41.63
2019-05-25T17:45:52.627Z,42.02
2019-05-25T17:47:45.566Z,41.53
2019-05-25T17:48:45.563Z,41.63
2019-05-25T17:50:38.495Z,41.63
2019-05-25T17:51:38.507Z,41.53
2019-05-25T17:53:31.422Z,42.02
2019-05-25T17:54:31.434Z,42.40
2019-05-25T17:56:24.355Z,43.46
2019-05-25T17:57:24.371Z,43.27
2019-05-25T17:59:17.297Z,42.57
2019-05-25T18:00:17.302Z,43.05
2019-05-25T18:02:10.229Z,43.82
2019-05-25T18:03:10.240Z,43.82
2019-05-25T18:05:03.158Z,44.31
2019-05-25T18:06:03.174Z,44.48
2019-05-25T18:07:56.109Z,44.57
2019-05-25T18:08:56.108Z,44.96
2019-05-25T18:10:53.266Z,44.49
2019-05-25T18:11:49.045Z,44.21
2019-05-25T18:13:41.969Z,44.31
2019-05-25T18:14:41.982Z,44.11
2019-05-25T18:16:34.897Z,44.21
2019-05-25T18:17:34.914Z,44.40
2019-05-25T18:19:27.848Z,44.40
2019-05-25T18:20:27.852Z,44.76
2019-05-25T18:22:20.770Z,44.67
2019-05-25T18:23:20.893Z,44.48
2019-05-25T18:25:13.705Z,45.15
2019-05-25T18:26:13.716Z,45.63
2019-05-25T18:28:06.645Z,45.56
2019-05-25T18:29:06.652Z,45.46
2019-05-25T18:30:59.590Z,45.75
2019-05-25T18:31:59.617Z,46.04
2019-05-25T18:33:52.511Z,46.62